Tiempo atmosférico en la estación meteorológica de Beasain, Gipuzkoa (245 m.)



Fecha
DESCASC
Temp. máxima en grados centígrados (hora)
DESCASC
Temp. mínima en grados centígrados (hora)
DESCASC
Temp. media en grados centígrados
DESCASC
Racha de viento máxima en m/sg (hora)
DESCASC
Velocidad máxima media en intervalos de 10 minutos(hora)
DESCASC
Precipitaciones diarias en mm
DESCASC
Precipitaciones de 00:00 a 06:00 en mm
DESCASC
Precipitaciones de 06:00 a 12:00 en mm
DESCASC
Precipitaciones de 12:00 a 18:00 en mm
DESCASC
Precipitaciones de 18:00 a 24:00 en mm
DESCASC
29-10-2020 21.8 (15:10) 7.3 (07:20) 14.5 3.61 (10:00) 2.22 (10:00) 0 0 0 0 0
28-10-2020 15.5 (13:00) 8.7 (23:59) 12.1 4.17 (01:30) 2.22 (14:40) 0 0 0 0 0
27-10-2020 17 (15:10) 5.9 (00:00) 11.5 5.83 (13:10) 3.33 (14:10) 0.2 0 0 0.2 0
26-10-2020 13.5 (13:30) 6 (00:00) 9.8 10 (13:40) 5.28 (12:50) 1 0 0.2 0.8 0
25-10-2020 18.1 (01:40) 9.2 (00:00) 13.7 16.67 (01:40) 6.11 (01:40) 14 0 0 8.8 5.2
24-10-2020 19 (15:20) 7.5 (00:00) 13.3 12.22 (21:40) 5.28 (21:20) 0 0 0 0 0
23-10-2020 19.3 (14:50) 11.3 (00:00) 15.3 7.22 (14:30) 3.61 (17:20) 3.2 0.6 0.2 1.4 1
22-10-2020 21.8 (15:00) 13.5 (00:00) 17.6 10 (13:10) 5 (15:30) 1.6 0 0 0 1.6
21-10-2020 22.6 (15:00) 14.9 (00:00) 18.8 23.61 (00:40) 12.5 (00:50) 2.6 2.6 0 0 0
20-10-2020 19.4 (19:40) 16.7 (00:00) 18.1 23.33 (23:50) 11.67 (23:50) 1 0 0 1 0
19-10-2020 23.2 (16:10) 7.9 (00:00) 15.6 13.33 (12:30) 6.11 (11:30) 0 0 0 0 0
18-10-2020 21.7 (16:20) 4.1 (00:00) 12.9 3.61 (15:30) 1.94 (15:30) 0 0 0 0 0
17-10-2020 19.2 (16:40) 3.7 (00:00) 11.5 3.33 (18:10) 1.67 (18:10) 0 0 0 0 0
16-10-2020 13.3 (15:20) 4.5 (00:00) 8.9 4.44 (16:30) 2.22 (18:50) 0.4 0.2 0.2 0 0
15-10-2020 9.1 (15:30) 6.1 (00:00) 7.6 4.44 (15:10) 2.5 (15:10) 11.4 0 9.8 1.6 0
14-10-2020 11.8 (16:20) 8.2 (00:00) 10 7.22 (13:50) 3.33 (14:00) 21 8.6 6.2 4.6 1.6
13-10-2020 14.7 (12:40) 10.2 (00:00) 12.4 8.06 (17:20) 4.17 (17:30) 6.6 2.6 2 0.2 1.8
12-10-2020 15.4 (17:40) 9.7 (00:00) 12.5 5 (17:10) 3.06 (17:10) 9.2 6.2 2.6 0.2 0.2
11-10-2020 12.4 (16:10) 8.1 (00:00) 10.3 10 (16:40) 4.17 (17:00) 13.6 0.8 1.4 3.2 8.2
10-10-2020 16.2 (14:30) 10.9 (00:00) 13.6 6.11 (22:30) 2.78 (16:40) 6.6 0 2 0.4 4.2
09-10-2020 -- (--) -- (--) -- -- (--) -- (--) -- -- 0.2 0 0
08-10-2020 24.8 (16:10) 12.5 (00:00) 18.6 3.06 (15:40) 1.67 (07:20) 0.2 0.2 0 0 0
07-10-2020 17.4 (15:40) 14.7 (00:00) 16 3.89 (10:00) 1.94 (10:00) 3.4 0.4 2.2 0.4 0.4
06-10-2020 17.7 (14:10) 10.1 (00:00) 13.9 2.78 (14:50) 1.94 (14:50) 0.6 0 0 0.6 0
05-10-2020 19.7 (17:00) 8.9 (00:00) 14.3 4.72 (17:50) 2.22 (15:20) 1 0.4 0.6 0 0
04-10-2020 15.2 (16:40) 6.6 (00:00) 10.9 9.17 (17:10) 3.89 (17:10) 3.8 0 3 0.8 0
03-10-2020 14.2 (16:00) 7.6 (00:00) 10.9 6.39 (08:50) 3.06 (16:10) 35.2 9.6 24 1.6 0
02-10-2020 19.6 (00:10) 8.6 (00:00) 14.1 14.17 (03:30) 6.39 (04:30) 20.8 5.2 13.2 0.2 2.2
01-10-2020 19.6 (23:50) 11.3 (00:00) 15.5 16.39 (22:50) 5.28 (23:00) 1.2 0 1.2 0 0

Gráficas

Temp. máximas Temp. mínimas Temp. medias Precipitaciones Rachas de viento máximas Velocidades máximas media en intervalos de 10 minutos

Datos horarios

Fecha y hora oficial Temperatura (ºC) Velocidad del viento (km/h) Dirección del viento Racha (km/h) Dirección de racha Precipitación (mm) Presión (hPa) Tendencia (hPa) Humedad (%)
2020-10-30 23:00:00 10.1 0 Calma 3 Norte 0 -- -- 99
2020-10-30 22:00:00 10.7 2 Norte 5 Sudeste 0 -- -- 98
2020-10-30 21:00:00 11.7 2 Norte 5 Norte 0 -- -- 96
2020-10-30 20:00:00 13.2 2 Norte 4 Sudeste 0 -- -- 91
2020-10-30 19:00:00 15.3 0 Calma 6 Sur 0 -- -- 87
2020-10-30 18:00:00 18 0 Calma 6 Norte 0 -- -- 73
2020-10-30 17:00:00 21.5 0 Calma 8 Norte 0 -- -- 57
2020-10-30 16:00:00 23.1 3 Norte 8 Norte 0 -- -- 52
2020-10-30 15:00:00 24.1 2 Norte 11 Sudeste 0 -- -- 50
2020-10-30 14:00:00 22.9 5 Sudeste 13 Sudoeste 0 -- -- 49
2020-10-30 13:00:00 21.4 3 Este 13 Sudeste 0 -- -- 57
2020-10-30 12:00:00 17.6 2 Oeste 6 Sur 0 -- -- 75
2020-10-30 11:00:00 13.8 0 Calma 5 Sur 0 -- -- 92
2020-10-30 10:00:00 9.8 3 Sudoeste 6 Sudeste 0 -- -- 100
2020-10-30 09:00:00 7 3 Sur 6 Sur 0 -- -- 100
2020-10-30 08:00:00 5.9 2 Este 5 Sudeste 0 -- -- 100
2020-10-30 07:00:00 6 0 Calma 4 Nordeste 0 -- -- 100
2020-10-30 06:00:00 6.6 0 Calma 5 Norte 0 -- -- 100
2020-10-30 05:00:00 6.9 0 Calma 4 Norte 0 -- -- 100
2020-10-30 04:00:00 7.3 0 Calma 5 Sudeste 0 -- -- 100
2020-10-30 03:00:00 7.6 2 Norte 6 Sur 0 -- -- 100
2020-10-30 02:00:00 7.9 2 Nordeste 6 Sur 0 -- -- 100
2020-10-30 01:00:00 8.5 0 Calma 5 Nordeste 0 -- -- 100
2020-10-30 00:00:00 9 3 Sur 7 Sur 0 -- -- 100
2020-10-29 23:00:00 9.6 0 Calma 4 Norte 0 -- -- 99
2020-10-29 22:00:00 10.4 0 Calma 4 Sur 0 -- -- 97
2020-10-29 21:00:00 11.3 0 Calma 3 Noroeste 0 -- -- 95
2020-10-29 20:00:00 12.5 0 Calma 3 Norte 0 -- -- 91
2020-10-29 19:00:00 14.3 0 Calma 6 Norte 0 -- -- 85
2020-10-29 18:00:00 16.3 2 Nordeste 8 Norte 0 -- -- 77
2020-10-29 17:00:00 19.1 3 Norte 6 Norte 0 -- -- 67
2020-10-29 16:00:00 20.7 3 Norte 7 Norte 0 -- -- 57
2020-10-29 15:00:00 21.7 4 Noroeste 8 Sudoeste 0 -- -- 57
2020-10-29 14:00:00 20.5 4 Norte 7 Este 0 -- -- 55
2020-10-29 13:00:00 19.2 4 Noroeste 7 Noroeste 0 -- -- 62
2020-10-29 12:00:00 16.4 3 Noroeste 6 Oeste 0 -- -- 73
2020-10-29 11:00:00 12.9 0 Calma 7 Sudoeste 0 -- -- 88
2020-10-29 10:00:00 9 8 Sur 13 Sur 0 -- -- 100
2020-10-29 09:00:00 7.8 3 Sur 8 Norte 0 -- -- 100
2020-10-29 08:00:00 7.6 3 Sudeste 9 Sur 0 -- -- 100
2020-10-29 07:00:00 7.7 4 Norte 5 Norte 0 -- -- 100
2020-10-29 06:00:00 8.4 2 Norte 7 Norte 0 -- -- 100
2020-10-29 05:00:00 8.7 2 Nordeste 6 Sur 0 -- -- 100
2020-10-29 04:00:00 8.4 0 Calma 8 Sur 0 -- -- 100
2020-10-29 03:00:00 8.6 4 Sur 6 Nordeste 0 -- -- 100
2020-10-29 02:00:00 8.4 0 Calma 5 Sur 0 -- -- 100
2020-10-29 01:00:00 8.2 0 Calma 6 Sur 0 -- -- 100
2020-10-29 00:00:00 8.7 4 Sur 7 Sur 0 -- -- 99
2020-10-28 23:00:00 9.6 3 Nordeste 5 Nordeste 0 -- -- 98
2020-10-28 22:00:00 10.3 0 Calma 6 Norte 0 -- -- 95
2020-10-28 21:00:00 11.5 4 Norte 5 Norte 0 -- -- 93
2020-10-28 20:00:00 12.7 3 Norte 5 Norte 0 -- -- 89
2020-10-28 19:00:00 13.5 3 Norte 4 Norte 0 -- -- 87
2020-10-28 18:00:00 14.1 2 Sur 10 Nordeste 0 -- -- 83
2020-10-28 17:00:00 14.5 4 Nordeste 8 Nordeste 0 -- -- 81
2020-10-28 16:00:00 15.1 5 Nordeste 14 Nordeste 0 -- -- 78
2020-10-28 15:00:00 15.3 5 Norte 13 Norte 0 -- -- 79
2020-10-28 14:00:00 14.8 5 Norte 12 Norte 0 -- -- 83
2020-10-28 13:00:00 15.5 3 Sudoeste 8 Sudoeste 0 -- -- 84
2020-10-28 12:00:00 14.4 4 Sur 8 Sur 0 -- -- 90
2020-10-28 11:00:00 13.8 3 Sur 7 Sur 0 -- -- 91
2020-10-28 10:00:00 12.5 4 Sur 6 Sur 0 -- -- 95
2020-10-28 09:00:00 11.7 0 Calma 4 Nordeste 0 -- -- 97
2020-10-28 08:00:00 11.3 0 Calma 5 Sudeste 0 -- -- 97
2020-10-28 07:00:00 11.3 2 Sur 8 Nordeste 0 -- -- 96
2020-10-28 06:00:00 11.7 4 Nordeste 8 Nordeste 0 -- -- 95
2020-10-28 05:00:00 11.9 0 Calma 6 Norte 0 -- -- 94
2020-10-28 04:00:00 11.7 3 Sudeste 12 Nordeste 0 -- -- 93
2020-10-28 03:00:00 11.6 4 Norte 10 Norte 0 -- -- 94
2020-10-28 02:00:00 11 2 Este 15 Noroeste 0 -- -- 94
2020-10-28 01:00:00 10.7 4 Norte 7 Norte 0 -- -- 96
2020-10-28 00:00:00 10.4 3 Norte 6 Sudeste 0 -- -- 96
2020-10-27 23:00:00 10.7 5 Norte 8 Norte 0 -- -- 93
2020-10-27 22:00:00 11.5 3 Nordeste 6 Norte 0 -- -- 90
2020-10-27 21:00:00 11.6 4 Norte 8 Norte 0 -- -- 90
2020-10-27 20:00:00 12.4 4 Norte 8 Norte 0 -- -- 90
2020-10-27 19:00:00 12.8 3 Nordeste 6 Noroeste 0 -- -- 88
2020-10-27 18:00:00 13.7 2 Sudeste 7 Sudeste 0 -- -- 84
2020-10-27 17:00:00 14.7 4 Nordeste 11 Sudoeste 0 -- -- 80
2020-10-27 16:00:00 15.8 8 Sur 15 Sur 0 -- -- 64
2020-10-27 15:00:00 16.7 8 Sudoeste 20 Sur 0 -- -- 63
2020-10-27 14:00:00 16.2 9 Sur 21 Sur 0.2 -- -- 63
2020-10-27 13:00:00 15 5 Sur 13 Sudoeste 0 -- -- 68
2020-10-27 12:00:00 12.7 0 Calma 5 Noroeste 0 -- -- 84
2020-10-27 11:00:00 10.6 2 Sudoeste 7 Sudoeste 0 -- -- 100
2020-10-27 10:00:00 9.4 3 Norte 5 Norte 0 -- -- 100
2020-10-27 09:00:00 7.8 0 Calma 5 Norte 0 -- -- 100
2020-10-27 08:00:00 6.6 3 Nordeste 5 Sur 0 -- -- 100
2020-10-27 07:00:00 6.2 3 Norte 5 Norte 0 -- -- 100
2020-10-27 06:00:00 6 2 Norte 5 Sudeste 0 -- -- 100
2020-10-27 05:00:00 6.3 3 Sur 5 Sur 0 -- -- 100
2020-10-27 04:00:00 6.4 0 Calma 7 Nordeste 0 -- -- 100
2020-10-27 03:00:00 6.8 0 Calma 5 Sudeste 0 -- -- 100
2020-10-27 02:00:00 6.7 0 Calma 3 Este 0 -- -- 100
2020-10-27 01:00:00 7 0 Calma 7 Sur 0 -- -- 100
2020-10-27 00:00:00 7.2 3 Sudoeste 5 Norte 0 -- -- 100
2020-10-26 23:00:00 7.5 0 Calma 6 Sur 0 -- -- 100
2020-10-26 22:00:00 7.7 2 Sudeste 6 Norte 0 -- -- 100
2020-10-26 21:00:00 8.1 0 Calma 4 Sudeste 0 -- -- 100
2020-10-26 20:00:00 7.9 2 Sur 11 Norte 0 -- -- 99
2020-10-26 19:00:00 8.7 4 Nordeste 7 Norte 0 -- -- 96
2020-10-26 18:00:00 10.3 4 Nordeste 6 Norte 0 -- -- 97
2020-10-26 17:00:00 12 0 Calma 16 Norte 0.2 -- -- 90
2020-10-26 16:00:00 11.9 10 Norte 24 Norte 0 -- -- 82
2020-10-26 15:00:00 11.4 2 Noroeste 18 Norte 0.6 -- -- 90
2020-10-26 14:00:00 12.5 10 Norte 36 Norte 0 -- -- 74
2020-10-26 13:00:00 13 16 Norte 32 Norte 0 -- -- 70
2020-10-26 12:00:00 12.5 6 Norte 22 Norte 0 -- -- 75
2020-10-26 11:00:00 11.1 2 Noroeste 5 Oeste 0 -- -- 84
2020-10-26 10:00:00 9.2 3 Sur 6 Sudoeste 0 -- -- 100
2020-10-26 09:00:00 7.1 2 Este 5 Nordeste 0 -- -- 100
2020-10-26 08:00:00 6.5 4 Sudeste 6 Norte 0.2 -- -- 100
2020-10-26 07:00:00 6.2 4 Nordeste 8 Sudeste 0 -- -- 100
2020-10-26 06:00:00 6 3 Nordeste 8 Norte 0 -- -- 100
2020-10-26 05:00:00 6.5 2 Nordeste 6 Norte 0 -- -- 100
2020-10-26 04:00:00 7 4 Norte 9 Norte 0 -- -- 100
2020-10-26 03:00:00 8 0 Calma 4 Norte 0 -- -- 100
2020-10-26 02:00:00 8.4 3 Nordeste 5 Nordeste 0 -- -- 100
2020-10-26 01:00:00 8.8 0 Calma 6 Nordeste 0 -- -- 100
2020-10-26 00:00:00 9.2 2 Norte 4 Nordeste 0 -- -- 100
2020-10-25 23:00:00 9.5 2 Nordeste 6 Norte 0 -- -- 100
2020-10-25 22:00:00 9.7 2 Sudeste 5 Sur 0.6 -- -- 100
2020-10-25 21:00:00 9.8 4 Sur 9 Sur 1.6 -- -- 100
2020-10-25 20:00:00 10.1 2 Sur 7 Sur 1.4 -- -- 99
2020-10-25 19:00:00 10.5 3 Sur 7 Norte 1.6 -- -- 99
2020-10-25 18:00:00 10.8 3 Sudoeste 28 Norte 3.8 -- -- 97
2020-10-25 17:00:00 11.7 9 Norte 26 Nordeste 3.4 -- -- 95
2020-10-25 16:00:00 13.7 9 Norte 16 Norte 0.2 -- -- 96
2020-10-25 15:00:00 14.3 3 Sur 18 Oeste 1.4 -- -- 91
2020-10-25 14:00:00 16.1 5 Sudoeste 17 Sur 0 -- -- 75
2020-10-25 13:00:00 15.2 6 Sur 29 Sudoeste 0 -- -- 74
2020-10-25 12:00:00 15.9 19 Sur 33 Sur 0 -- -- 67
2020-10-25 11:00:00 16.6 10 Sur 30 Sur 0 -- -- 61
2020-10-25 10:00:00 15.6 9 Sur 27 Sur 0 -- -- 63
2020-10-25 09:00:00 16.8 13 Sudoeste 35 Sudoeste 0 -- -- 62
2020-10-25 08:00:00 17.5 10 Sur 32 Sudoeste 0 -- -- 54
2020-10-25 07:00:00 17.8 11 Sudoeste 42 Sudoeste 0 -- -- 52
2020-10-25 06:00:00 17.7 13 Sudoeste 46 Sur 0 -- -- 54
2020-10-25 05:00:00 17.4 9 Sur 39 Sudoeste 0 -- -- 57
2020-10-25 04:00:00 17.7 21 Sudoeste 42 Sudoeste 0 -- -- 55
2020-10-25 03:00:00 16.9 15 Sur 36 Sur 0 -- -- 57
2020-10-25 02:00:00 17.3 15 Sudoeste 42 Sudoeste 0 -- -- 56
2020-10-25 01:00:00 17.4 10 Sur 33 Sudoeste 0 -- -- 55
2020-10-25 00:00:00 17.4 8 Oeste 32 Sudoeste 0 -- -- 56
2020-10-24 23:00:00 17.4 10 Sur 33 Este 0 -- -- 55
2020-10-24 22:00:00 17.1 11 Sudoeste 44 Sudoeste 0 -- -- 55
2020-10-24 21:00:00 17 13 Este 44 Sur 0 -- -- 56
2020-10-24 20:00:00 15.4 5 Este 22 Sudoeste 0 -- -- 64
2020-10-24 19:00:00 15.2 5 Norte 31 Sur 0 -- -- 70
2020-10-24 18:00:00 16.8 4 Norte 18 Sur 0 -- -- 66
2020-10-24 17:00:00 17.9 9 Sur 29 Sur 0 -- -- 55
2020-10-24 16:00:00 18.8 9 Sudoeste 24 Sudoeste 0 -- -- 52
2020-10-24 15:00:00 18.7 6 Norte 20 Norte 0 -- -- 54
2020-10-24 14:00:00 17.4 10 Noroeste 26 Norte 0 -- -- 52
2020-10-24 13:00:00 17.6 3 Sudeste 12 Nordeste 0 -- -- 53
2020-10-24 12:00:00 15.5 0 Calma 14 Norte 0 -- -- 67
2020-10-24 11:00:00 11.6 4 Nordeste 10 Norte 0 -- -- 99
2020-10-24 10:00:00 8.9 5 Nordeste 9 Norte 0 -- -- 100
2020-10-24 09:00:00 7.8 2 Oeste 7 Norte 0 -- -- 100
2020-10-24 08:00:00 7.8 4 Norte 6 Norte 0 -- -- 100
2020-10-24 07:00:00 8.8 3 Nordeste 8 Nordeste 0 -- -- 100
2020-10-24 06:00:00 9.7 3 Nordeste 6 Norte 0 -- -- 100
2020-10-24 05:00:00 10 4 Nordeste 8 Nordeste 0 -- -- 100
2020-10-24 04:00:00 10.6 0 Calma 4 Sur 0 -- -- 100
2020-10-24 03:00:00 10.7 2 Sur 4 Sudoeste 0 -- -- 100
2020-10-24 02:00:00 10.8 3 Sudoeste 5 Sur 0 -- -- 100
2020-10-24 01:00:00 10.9 0 Calma 7 Nordeste 0 -- -- 100
2020-10-24 00:00:00 11.5 0 Calma 5 Sudeste 0 -- -- 100
2020-10-23 23:00:00 11.4 2 Norte 5 Nordeste 0 -- -- 100
2020-10-23 22:00:00 11.8 0 Calma 4 Norte 0 -- -- 99
2020-10-23 21:00:00 12.2 0 Calma 3 Sudeste 0 -- -- 99
2020-10-23 20:00:00 12.4 0 Calma 6 Sur 0 -- -- 97
2020-10-23 19:00:00 12.8 4 Sur 14 Nordeste 1 -- -- 94
2020-10-23 18:00:00 13.6 8 Nordeste 25 Norte 1.4 -- -- 88
2020-10-23 17:00:00 16.9 7 Sur 18 Sur 0 -- -- 68
2020-10-23 16:00:00 17.5 4 Nordeste 22 Nordeste 0 -- -- 59
2020-10-23 15:00:00 18.9 7 Nordeste 26 Norte 0 -- -- 53
2020-10-23 14:00:00 17.5 7 Sur 16 Norte 0 -- -- 57
2020-10-23 13:00:00 18 4 Nordeste 23 Norte 0 -- -- 57
2020-10-23 12:00:00 16.9 8 Nordeste 20 Norte 0 -- -- 63
2020-10-23 11:00:00 15 4 Nordeste 9 Nordeste 0 -- -- 86
2020-10-23 10:00:00 11.9 2 Nordeste 6 Norte 0 -- -- 100
2020-10-23 09:00:00 11.3 0 Calma 7 Norte 0 -- -- 100
2020-10-23 08:00:00 11.6 0 Calma 9 Norte 0 -- -- 100
2020-10-23 07:00:00 12.3 3 Nordeste 6 Norte 0.2 -- -- 100
2020-10-23 06:00:00 12.5 4 Nordeste 10 Noroeste 0.2 -- -- 100
2020-10-23 05:00:00 12.7 0 Calma 7 Nordeste 0 -- -- 100
2020-10-23 04:00:00 12.9 2 Sudoeste 15 Norte 0.2 -- -- 100
2020-10-23 03:00:00 13.1 5 Nordeste 9 Norte 0.2 -- -- 100
2020-10-23 02:00:00 13.3 2 Sur 6 Norte 0 -- -- 100
2020-10-23 01:00:00 13.3 3 Norte 8 Norte 0 -- -- 99
2020-10-23 00:00:00 13.5 4 Nordeste 10 Nordeste 0 -- -- 98
2020-10-22 23:00:00 14.2 2 Oeste 16 Norte 1.4 -- -- 94
2020-10-22 22:00:00 16.5 4 Nordeste 21 Norte 0.2 -- -- 80
2020-10-22 21:00:00 15.6 0 Calma 8 Nordeste 0 -- -- 86
2020-10-22 20:00:00 17.1 4 Nordeste 7 Norte 0 -- -- 81
2020-10-22 19:00:00 19 3 Nordeste 18 Sur 0 -- -- 70
2020-10-22 18:00:00 19.7 10 Sudoeste 30 Sur 0 -- -- 65
2020-10-22 17:00:00 20.6 9 Sur 23 Sudoeste 0 -- -- 59
2020-10-22 16:00:00 21.2 6 Sudoeste 33 Sur 0 -- -- 59
2020-10-22 15:00:00 21.8 12 Sudoeste 28 Sudoeste 0 -- -- 58
2020-10-22 14:00:00 21 12 Sur 36 Sur 0 -- -- 58
2020-10-22 13:00:00 20.5 12 Sur 26 Sur 0 -- -- 60
2020-10-22 12:00:00 20.8 15 Sur 30 Sur 0 -- -- 60
2020-10-22 11:00:00 19.9 8 Sur 22 Sur 0 -- -- 63
2020-10-22 10:00:00 18.6 5 Sudeste 10 Sur 0 -- -- 66
2020-10-22 09:00:00 16.6 0 Calma 13 Sudoeste 0 -- -- 70
2020-10-22 08:00:00 16.5 4 Sur 17 Sudoeste 0 -- -- 69
2020-10-22 07:00:00 15.6 2 Este 8 Norte 0 -- -- 74
2020-10-22 06:00:00 14.6 3 Oeste 15 Nordeste 0 -- -- 79
2020-10-22 05:00:00 15.7 4 Sur 18 Oeste 0 -- -- 72
2020-10-22 04:00:00 15.5 3 Sur 15 Sur 0 -- -- 73
2020-10-22 03:00:00 17.1 10 Sur 31 Sur 0 -- -- 67
2020-10-22 02:00:00 16.9 11 Sur 19 Sur 0 -- -- 67
2020-10-22 01:00:00 16.8 3 Nordeste 15 Oeste 0 -- -- 66
2020-10-22 00:00:00 17.2 6 Oeste 20 Sudoeste 0 -- -- 65
2020-10-21 23:00:00 17 9 Sudoeste 21 Sur 0 -- -- 67
2020-10-21 22:00:00 14.9 3 Nordeste 6 Nordeste 0 -- -- 79
2020-10-21 21:00:00 16.2 5 Norte 18 Norte 0 -- -- 74
2020-10-21 20:00:00 18.5 5 Sudoeste 21 Sudoeste 0 -- -- 63
2020-10-21 19:00:00 19.3 13 Sudoeste 28 Sur 0 -- -- 60
2020-10-21 18:00:00 20.1 11 Sudoeste 35 Sudoeste 0 -- -- 54
2020-10-21 17:00:00 21.6 12 Sudoeste 40 Sur 0 -- -- 54
2020-10-21 16:00:00 22.1 19 Sur 35 Sur 0 -- -- 52
2020-10-21 15:00:00 22.6 13 Sudoeste 41 Sudoeste 0 -- -- 49
2020-10-21 14:00:00 22.5 12 Sudoeste 41 Sur 0 -- -- 49
2020-10-21 13:00:00 22 17 Sur 35 Sur 0 -- -- 50
2020-10-21 12:00:00 21.6 15 Sudoeste 32 Sur 0 -- -- 53
2020-10-21 11:00:00 20.6 13 Sudoeste 28 Sur 0 -- -- 58
2020-10-21 10:00:00 19.6 7 Sur 27 Sur 0 -- -- 59
2020-10-21 09:00:00 18 11 Sur 40 Sudoeste 0 -- -- 63
2020-10-21 08:00:00 18.2 14 Sur 28 Sudoeste 0 -- -- 66
2020-10-21 07:00:00 18 10 Sur 30 Sur 0 -- -- 70
2020-10-21 06:00:00 18 15 Sur 39 Sudoeste 0 -- -- 71
2020-10-21 05:00:00 16.9 14 Sur 47 Sudoeste 0.4 -- -- 79
2020-10-21 04:00:00 18.4 21 Sudoeste 71 Sudoeste 0.6 -- -- 72
2020-10-21 03:00:00 17.3 35 Sur 74 Sur 1.6 -- -- 77
2020-10-21 02:00:00 19 39 Sur 75 Sur 0 -- -- 69
2020-10-21 01:00:00 19.3 40 Sur 85 Sur 0 -- -- 65
2020-10-21 00:00:00 18.7 39 Sur 84 Sur 0 -- -- 67
2020-10-20 23:00:00 19.4 36 Sudoeste 74 Sur 0 -- -- 63
2020-10-20 22:00:00 18.9 25 Sur 81 Sur 0 -- -- 64
2020-10-20 21:00:00 18.7 30 Sur 69 Sur 0 -- -- 66
2020-10-20 20:00:00 19 32 Sur 64 Sudoeste 0 -- -- 68
2020-10-20 19:00:00 19.1 23 Sudoeste 58 Sudoeste 0 -- -- 69
2020-10-20 18:00:00 18.9 17 Sur 45 Sur 0 -- -- 69
2020-10-20 17:00:00 18.5 11 Sur 58 Sur 0 -- -- 71
2020-10-20 16:00:00 17.9 21 Sur 56 Sudeste 0.2 -- -- 73
2020-10-20 15:00:00 16.8 15 Sur 33 Sur 0.4 -- -- 79
2020-10-20 14:00:00 17 18 Sur 46 Sur 0.4 -- -- 77
2020-10-20 13:00:00 18 18 Sur 46 Sudoeste 0 -- -- 69
2020-10-20 12:00:00 18.2 8 Sur 31 Sudeste 0 -- -- 67
2020-10-20 11:00:00 18.1 10 Sur 44 Sudeste 0 -- -- 66
2020-10-20 10:00:00 17.6 16 Sudoeste 37 Sur 0 -- -- 68
2020-10-20 09:00:00 17 14 Sur 38 Sur 0 -- -- 71
2020-10-20 08:00:00 17.2 8 Sudoeste 37 Sur 0 -- -- 72
2020-10-20 07:00:00 17.5 11 Sur 32 Sur 0 -- -- 66
2020-10-20 06:00:00 17.8 14 Sudoeste 38 Sudoeste 0 -- -- 64
2020-10-20 05:00:00 17.9 13 Sudoeste 38 Sur 0 -- -- 63
2020-10-20 04:00:00 18 10 Sudoeste 46 Sur 0 -- -- 63
2020-10-20 03:00:00 18.2 8 Sudoeste 32 Sudoeste 0 -- -- 62
2020-10-20 02:00:00 18.2 10 Sudoeste 33 Sur 0 -- -- 60
2020-10-20 01:00:00 18.9 14 Oeste 56 Sudoeste 0 -- -- 56
2020-10-20 00:00:00 19.3 12 Sudoeste 40 Oeste 0 -- -- 55
2020-10-19 23:00:00 19.8 17 Oeste 38 Oeste 0 -- -- 55
2020-10-19 22:00:00 20.1 15 Sudoeste 33 Oeste 0 -- -- 54
2020-10-19 21:00:00 20 13 Oeste 39 Oeste 0 -- -- 53
2020-10-19 20:00:00 20.1 7 Sudeste 32 Sudeste 0 -- -- 50
2020-10-19 19:00:00 20.1 11 Sudoeste 30 Sur 0 -- -- 50
2020-10-19 18:00:00 21.9 11 Sur 32 Sur 0 -- -- 49
2020-10-19 17:00:00 23 10 Sudoeste 34 Sudoeste 0 -- -- 46
2020-10-19 16:00:00 22.5 10 Sur 42 Sur 0 -- -- 47
2020-10-19 15:00:00 20.4 18 Sur 40 Sudeste 0 -- -- 49
2020-10-19 14:00:00 20.6 21 Sur 46 Sur 0 -- -- 48
2020-10-19 13:00:00 20.5 15 Sudoeste 48 Sudoeste 0 -- -- 49
2020-10-19 12:00:00 18.8 12 Sudoeste 45 Sur 0 -- -- 55
2020-10-19 11:00:00 17.6 15 Sudoeste 31 Sur 0 -- -- 56
2020-10-19 10:00:00 15.4 13 Sudoeste 23 Sur 0 -- -- 57
2020-10-19 09:00:00 13.9 6 Sudoeste 19 Sudoeste 0 -- -- 62
2020-10-19 08:00:00 13.1 4 Oeste 16 Sudoeste 0 -- -- 60
2020-10-19 07:00:00 11.3 7 Sur 15 Sur 0 -- -- 70
2020-10-19 06:00:00 8.6 4 Norte 8 Este 0 -- -- 91
2020-10-19 05:00:00 8.9 3 Norte 14 Sudeste 0 -- -- 91
2020-10-19 04:00:00 7.9 3 Norte 8 Sudoeste 0 -- -- 100
2020-10-19 03:00:00 8.3 3 Nordeste 8 Norte 0 -- -- 100
2020-10-19 02:00:00 8.4 3 Sudeste 9 Sudeste 0 -- -- 100
2020-10-19 01:00:00 8.6 3 Sudeste 13 Sudeste 0 -- -- 100
2020-10-19 00:00:00 9.1 0 Calma 3 Norte 0 -- -- 99
2020-10-18 23:00:00 9.8 3 Norte 6 Sudeste 0 -- -- 98
2020-10-18 22:00:00 10.8 0 Calma 5 Norte 0 -- -- 95
2020-10-18 21:00:00 12.2 0 Calma 5 Norte 0 -- -- 91
2020-10-18 20:00:00 14 2 Nordeste 5 Norte 0 -- -- 85
2020-10-18 19:00:00 16.6 0 Calma 7 Nordeste 0 -- -- 76
2020-10-18 18:00:00 20.2 3 Norte 6 Noroeste 0 -- -- 62
2020-10-18 17:00:00 20.8 2 Norte 9 Sudoeste 0 -- -- 57
2020-10-18 16:00:00 20.9 5 Sudeste 13 Sudeste 0 -- -- 52
2020-10-18 15:00:00 20.3 3 Sudeste 10 Sudoeste 0 -- -- 54
2020-10-18 14:00:00 17.1 4 Sudeste 10 Sudeste 0 -- -- 61
2020-10-18 13:00:00 14.2 4 Sur 7 Sur 0 -- -- 76
2020-10-18 12:00:00 9.3 0 Calma 6 Oeste 0 -- -- 100
2020-10-18 11:00:00 6.9 2 Sur 4 Sur 0 -- -- 100
2020-10-18 10:00:00 5.1 0 Calma 4 Sudeste 0 -- -- 100
2020-10-18 09:00:00 4.1 4 Sur 6 Sur 0 -- -- 100
2020-10-18 08:00:00 4.6 0 Calma 4 Sur 0 -- -- 100
2020-10-18 07:00:00 4.6 3 Sur 5 Sur 0 -- -- 100
2020-10-18 06:00:00 4.8 3 Sur 5 Sur 0 -- -- 100
2020-10-18 05:00:00 5.7 0 Calma 3 Norte 0 -- -- 100
2020-10-18 04:00:00 5.9 0 Calma 3 Norte 0 -- -- 100
2020-10-18 03:00:00 6.2 0 Calma 4 Norte 0 -- -- 100
2020-10-18 02:00:00 6.6 0 Calma 4 Norte 0 -- -- 100
2020-10-18 01:00:00 6.8 2 Sur 4 Sur 0 -- -- 100
2020-10-18 00:00:00 7.6 0 Calma 2 Nordeste 0 -- -- 99
2020-10-17 23:00:00 8.4 0 Calma 3 Norte 0 -- -- 99
2020-10-17 22:00:00 9.2 0 Calma 4 Norte 0 -- -- 96
2020-10-17 21:00:00 10.4 3 Norte 4 Norte 0 -- -- 93
2020-10-17 20:00:00 12.1 3 Nordeste 6 Norte 0 -- -- 87
2020-10-17 19:00:00 14.7 0 Calma 12 Nordeste 0 -- -- 79
2020-10-17 18:00:00 17.1 4 Norte 8 Nordeste 0 -- -- 72
2020-10-17 17:00:00 18.9 0 Calma 7 Norte 0 -- -- 53
2020-10-17 16:00:00 18.9 3 Nordeste 9 Sudoeste 0 -- -- 52
2020-10-17 15:00:00 17.3 3 Sudeste 8 Sudeste 0 -- -- 53
2020-10-17 14:00:00 14.4 3 Noroeste 8 Oeste 0 -- -- 71
2020-10-17 13:00:00 10.2 3 Norte 6 Norte 0 -- -- 89
2020-10-17 12:00:00 6.3 3 Noroeste 6 Noroeste 0 -- -- 100
2020-10-17 11:00:00 4.7 3 Noroeste 4 Oeste 0 -- -- 100
2020-10-17 10:00:00 3.8 2 Noroeste 4 Sudoeste 0 -- -- 100
2020-10-17 09:00:00 3.8 2 Sur 4 Norte 0 -- -- 100
2020-10-17 08:00:00 3.9 2 Sudoeste 4 Sur 0 -- -- 100
2020-10-17 07:00:00 3.8 2 Norte 4 Nordeste 0 -- -- 100
2020-10-17 06:00:00 3.7 0 Calma 5 Sudoeste 0 -- -- 100
2020-10-17 05:00:00 3.8 2 Sur 5 Norte 0 -- -- 100
2020-10-17 04:00:00 4.1 3 Norte 5 Norte 0 -- -- 100
2020-10-17 03:00:00 3.8 0 Calma 4 Sur 0 -- -- 100
2020-10-17 02:00:00 3.9 0 Calma 4 Sur 0 -- -- 100
2020-10-17 01:00:00 3.9 2 Sur 5 Sur 0 -- -- 100
2020-10-17 00:00:00 4.5 0 Calma 3 Norte 0 -- -- 100
2020-10-16 23:00:00 5.2 0 Calma 5 Norte 0 -- -- 100
2020-10-16 22:00:00 5.8 2 Sudeste 5 Sur 0 -- -- 99
2020-10-16 21:00:00 6.6 3 Norte 7 Norte 0 -- -- 97
2020-10-16 20:00:00 7.8 5 Norte 9 Norte 0 -- -- 94
2020-10-16 19:00:00 9.4 6 Nordeste 12 Norte 0 -- -- 91
2020-10-16 18:00:00 11.4 5 Norte 11 Norte 0 -- -- 79
2020-10-16 17:00:00 12.2 3 Este 16 Norte 0 -- -- 74
2020-10-16 16:00:00 12.4 3 Norte 10 Nordeste 0 -- -- 78
2020-10-16 15:00:00 12.6 4 Noroeste 9 Oeste 0 -- -- 73
2020-10-16 14:00:00 11.5 0 Calma 8 Sudeste 0 -- -- 81
2020-10-16 13:00:00 10.1 6 Sur 9 Sur 0 -- -- 100
2020-10-16 12:00:00 8.6 3 Sudeste 5 Sudoeste 0 -- -- 100
2020-10-16 11:00:00 7.3 3 Sur 5 Sudoeste 0 -- -- 100
2020-10-16 10:00:00 6.6 0 Calma 6 Sudeste 0.2 -- -- 100
2020-10-16 09:00:00 6.1 0 Calma 3 Sur 0 -- -- 100
2020-10-16 08:00:00 5.8 0 Calma 5 Nordeste 0 -- -- 100
2020-10-16 07:00:00 5.5 3 Nordeste 6 Nordeste 0 -- -- 100
2020-10-16 06:00:00 5.4 2 Sudoeste 7 Sur 0 -- -- 100
2020-10-16 05:00:00 5.4 2 Sur 4 Sur 0.2 -- -- 100
2020-10-16 04:00:00 5.6 2 Sur 4 Sur 0 -- -- 100
2020-10-16 03:00:00 5.8 0 Calma 5 Sudoeste 0 -- -- 100
2020-10-16 02:00:00 6.2 2 Norte 6 Norte 0 -- -- 100
2020-10-16 01:00:00 6.3 2 Nordeste 6 Sudoeste 0 -- -- 100
2020-10-16 00:00:00 6.1 0 Calma 5 Norte 0 -- -- 100
2020-10-15 23:00:00 6.2 0 Calma 6 Sur 0 -- -- 100
2020-10-15 22:00:00 6.3 0 Calma 6 Norte 0 -- -- 100
2020-10-15 21:00:00 6.8 0 Calma 6 Nordeste 0 -- -- 100
2020-10-15 20:00:00 7.2 0 Calma 5 Este 0 -- -- 99
2020-10-15 19:00:00 8 0 Calma 8 Nordeste 0 -- -- 97
2020-10-15 18:00:00 8.6 4 Norte 8 Norte 0 -- -- 94
2020-10-15 17:00:00 8.3 2 Oeste 6 Norte 0 -- -- 97
2020-10-15 16:00:00 8.8 3 Sudeste 16 Norte 0.2 -- -- 93
2020-10-15 15:00:00 8.9 8 Norte 13 Norte 0.2 -- -- 94
2020-10-15 14:00:00 8.5 0 Calma 5 Nordeste 0.4 -- -- 96
2020-10-15 13:00:00 8.1 4 Nordeste 10 Oeste 0.8 -- -- 99
2020-10-15 12:00:00 7.7 3 Sudoeste 6 Este 2 -- -- 100
2020-10-15 11:00:00 7.7 3 Nordeste 10 Sudeste 2 -- -- 100
2020-10-15 10:00:00 7.4 2 Sudoeste 6 Sur 4 -- -- 100
2020-10-15 09:00:00 7.1 5 Sur 10 Sur 1.6 -- -- 100
2020-10-15 08:00:00 6.4 0 Calma 5 Sur 0.2 -- -- 100
2020-10-15 07:00:00 6.6 0 Calma 6 Este 0 -- -- 100
2020-10-15 06:00:00 6.4 2 Sur 15 Norte 0 -- -- 100
2020-10-15 05:00:00 6.4 0 Calma 4 Sudeste 0 -- -- 100
2020-10-15 04:00:00 7.2 0 Calma 6 Sudeste 0 -- -- 100
2020-10-15 03:00:00 7.6 2 Nordeste 14 Noroeste 0 -- -- 100
2020-10-15 02:00:00 7.7 4 Norte 9 Norte 0 -- -- 100
2020-10-15 01:00:00 8 0 Calma 5 Noroeste 0 -- -- 100
2020-10-15 00:00:00 8.2 2 Nordeste 6 Norte 0.4 -- -- 100
2020-10-14 23:00:00 8.4 0 Calma 5 Norte 0.2 -- -- 100
2020-10-14 22:00:00 8.5 3 Nordeste 7 Nordeste 0 -- -- 100
2020-10-14 21:00:00 8.9 0 Calma 7 Este 0.8 -- -- 100
2020-10-14 20:00:00 9 4 Norte 6 Norte 0.2 -- -- 98
2020-10-14 19:00:00 10.1 4 Norte 14 Norte 0 -- -- 95
2020-10-14 18:00:00 10.6 4 Norte 12 Nordeste 0.4 -- -- 93
2020-10-14 17:00:00 11.6 3 Noroeste 17 Nordeste 0.2 -- -- 93
2020-10-14 16:00:00 11.3 5 Noroeste 16 Noroeste 0.4 -- -- 95
2020-10-14 15:00:00 10.3 8 Norte 20 Norte 0.8 -- -- 95
2020-10-14 14:00:00 10.6 12 Norte 26 Norte 0 -- -- 91
2020-10-14 13:00:00 10 6 Norte 20 Norte 2.8 -- -- 99
2020-10-14 12:00:00 10.2 6 Noroeste 13 Noroeste 0.4 -- -- 96
2020-10-14 11:00:00 9.3 0 Calma 17 Noroeste 2.6 -- -- 100
2020-10-14 10:00:00 9.4 0 Calma 10 Norte 1.2 -- -- 100
2020-10-14 09:00:00 8.9 3 Sudeste 10 Noroeste 0.4 -- -- 100
2020-10-14 08:00:00 9 0 Calma 6 Nordeste 1.4 -- -- 100
2020-10-14 07:00:00 9.1 2 Norte 6 Sudeste 0.2 -- -- 100
2020-10-14 06:00:00 9.4 2 Nordeste 10 Norte 1.2 -- -- 100
2020-10-14 05:00:00 9.7 3 Noroeste 14 Norte 3.4 -- -- 100
2020-10-14 04:00:00 9.9 3 Norte 17 Noroeste 2.8 -- -- 100
2020-10-14 03:00:00 10 2 Noroeste 8 Nordeste 1.2 -- -- 100
2020-10-14 02:00:00 10 4 Norte 10 Norte 0 -- -- 100
2020-10-14 01:00:00 10.1 2 Norte 4 Nordeste 0 -- -- 100
2020-10-14 00:00:00 10.2 0 Calma 6 Nordeste 0.8 -- -- 100
2020-10-13 23:00:00 10.5 4 Nordeste 9 Noroeste 0.4 -- -- 100
2020-10-13 22:00:00 10.8 2 Noroeste 7 Noroeste 0 -- -- 100
2020-10-13 21:00:00 10.9 3 Nordeste 6 Este 0 -- -- 99
2020-10-13 20:00:00 11.3 0 Calma 9 Norte 0.4 -- -- 99
2020-10-13 19:00:00 11.5 7 Noroeste 18 Norte 0.2 -- -- 97
2020-10-13 18:00:00 12.4 10 Norte 29 Norte 0 -- -- 92
2020-10-13 17:00:00 13.7 9 Norte 19 Noroeste 0 -- -- 84
2020-10-13 16:00:00 13.9 8 Norte 19 Norte 0 -- -- 86
2020-10-13 15:00:00 13.5 5 Norte 20 Norte 0 -- -- 88
2020-10-13 14:00:00 13.5 8 Norte 18 Norte 0.2 -- -- 89
2020-10-13 13:00:00 14.6 7 Norte 17 Norte 0 -- -- 82
2020-10-13 12:00:00 13.2 5 Noroeste 19 Norte 0 -- -- 91
2020-10-13 11:00:00 -- -- -- -- -- -- -- -- --
2020-10-13 10:00:00 -- -- -- -- -- -- -- -- --
2020-10-13 09:00:00 11.7 3 Norte 8 Norte 0.6 -- -- 100
2020-10-13 08:00:00 11.7 3 Noroeste 13 Norte 0.2 -- -- 100
2020-10-13 07:00:00 11.7 3 Sur 11 Sur 0.2 -- -- 100
2020-10-13 06:00:00 11.4 2 Sur 5 Sudeste 0 -- -- 100
2020-10-13 05:00:00 11.3 3 Sur 7 Sur 0 -- -- 100
2020-10-13 04:00:00 -- -- -- -- -- -- -- -- --
2020-10-13 03:00:00 11.1 2 Sudoeste 7 Sur 0.4 -- -- 100
2020-10-13 02:00:00 11 4 Sur 8 Sudeste 1 -- -- 100
2020-10-13 01:00:00 -- -- -- -- -- -- -- -- --
2020-10-13 00:00:00 11.1 0 Calma 7 Norte 0.2 -- -- 100
2020-10-12 23:00:00 11 3 Norte 7 Norte 0 -- -- 100
2020-10-12 22:00:00 11.2 2 Norte 5 Este 0 -- -- 98
2020-10-12 21:00:00 11.3 2 Norte 6 Nordeste 0 -- -- 96
2020-10-12 20:00:00 11.8 0 Calma 5 Nordeste 0 -- -- 91
2020-10-12 19:00:00 12.8 3 Norte 6 Norte 0 -- -- 90
2020-10-12 18:00:00 14.6 4 Norte 18 Nordeste 0 -- -- 78
2020-10-12 17:00:00 14.5 8 Nordeste 18 Nordeste 0 -- -- 78
2020-10-12 16:00:00 14.7 5 Nordeste 15 Este 0 -- -- 81
2020-10-12 15:00:00 13 3 Sudeste 11 Sudeste 0 -- -- 91
2020-10-12 14:00:00 13.8 3 Norte 11 Nordeste 0 -- -- 88
2020-10-12 13:00:00 12 3 Norte 7 Noroeste 0.2 -- -- 97
2020-10-12 12:00:00 11.6 0 Calma 8 Sudeste 0.2 -- -- 99
2020-10-12 11:00:00 10.9 0 Calma 5 Norte 0.4 -- -- 100
2020-10-12 10:00:00 10.5 5 Norte 16 Norte 0.2 -- -- 100
2020-10-12 09:00:00 10.2 4 Norte 8 Norte 0 -- -- 100
2020-10-12 08:00:00 10 3 Norte 6 Noroeste 1.4 -- -- 100
2020-10-12 07:00:00 9.9 0 Calma 14 Noroeste 0.4 -- -- 100
2020-10-12 06:00:00 9.8 2 Noroeste 6 Este 0.4 -- -- 100
2020-10-12 05:00:00 9.8 0 Calma 12 Norte 1.6 -- -- 100
2020-10-12 04:00:00 -- -- -- -- -- -- -- -- --
2020-10-12 03:00:00 9.7 2 Nordeste 8 Sudeste 1 -- -- 100
2020-10-12 02:00:00 9.7 3 Sudeste 8 Este 1.8 -- -- 100
2020-10-12 01:00:00 9.9 2 Norte 16 Nordeste 1 -- -- 100
2020-10-12 00:00:00 9.7 3 Sudoeste 13 Nordeste 1.6 -- -- 100
2020-10-11 23:00:00 9.8 4 Noroeste 11 Nordeste 2.4 -- -- 100
2020-10-11 22:00:00 9.8 2 Sur 7 Sudeste 1.2 -- -- 100
2020-10-11 21:00:00 -- -- -- -- -- -- -- -- --
2020-10-11 20:00:00 -- -- -- -- -- -- -- -- --
2020-10-11 19:00:00 10.2 2 Sur 17 Noroeste 1 -- -- 98
2020-10-11 18:00:00 10.6 11 Nordeste 29 Nordeste 0.4 -- -- 93
2020-10-11 17:00:00 11.1 15 Norte 36 Norte 1.4 -- -- 90
2020-10-11 16:00:00 12.3 4 Sur 18 Este 0 -- -- 89
2020-10-11 15:00:00 11.4 2 Noroeste 26 Nordeste 0 -- -- 94
2020-10-11 14:00:00 11.3 9 Norte 21 Norte 1.4 -- -- 93
2020-10-11 13:00:00 11.4 3 Noroeste 18 Noroeste 0 -- -- 95
2020-10-11 12:00:00 11.6 5 Noroeste 14 Noroeste 0.2 -- -- 94
2020-10-11 11:00:00 10 3 Sur 7 Noroeste 0.4 -- -- 100
2020-10-11 10:00:00 9.2 0 Calma 5 Sudeste 0 -- -- 100
2020-10-11 09:00:00 8.6 3 Norte 13 Norte 0 -- -- 100
2020-10-11 08:00:00 8.2 6 Norte 11 Norte 0.2 -- -- 100
2020-10-11 07:00:00 8.9 0 Calma 8 Norte 0.6 -- -- 100
2020-10-11 06:00:00 8.9 4 Norte 5 Norte 0.2 -- -- 100
2020-10-11 05:00:00 9.3 0 Calma 6 Nordeste 0 -- -- 100
2020-10-11 04:00:00 9.6 3 Norte 6 Norte 0.2 -- -- 100
2020-10-11 03:00:00 9.9 3 Norte 5 Norte 0 -- -- 100
2020-10-11 02:00:00 10.2 0 Calma 9 Nordeste 0.2 -- -- 99
2020-10-11 01:00:00 10.5 0 Calma 26 Nordeste 0.2 -- -- 98
2020-10-11 00:00:00 10.9 4 Norte 22 Nordeste 0.8 -- -- 97
2020-10-10 23:00:00 11.2 5 Norte 22 Nordeste 0.2 -- -- 96
2020-10-10 22:00:00 11.6 4 Norte 12 Norte 1.2 -- -- 100
2020-10-10 21:00:00 11.8 3 Norte 9 Nordeste 2 -- -- 98
2020-10-10 20:00:00 12.6 6 Norte 17 Norte 0 -- -- 90
2020-10-10 19:00:00 13.4 8 Norte 17 Norte 0 -- -- 88
2020-10-10 18:00:00 14.4 3 Norte 19 Norte 0 -- -- 82
2020-10-10 17:00:00 15 10 Nordeste 21 Norte 0 -- -- 80
2020-10-10 16:00:00 14.5 5 Norte 19 Nordeste 0 -- -- 86
2020-10-10 15:00:00 14.9 5 Sur 13 Sur 0 -- -- 84
2020-10-10 14:00:00 14.4 5 Norte 10 Noroeste 0 -- -- 93
2020-10-10 13:00:00 13.3 4 Norte 12 Norte 0.4 -- -- 98
2020-10-10 12:00:00 12.7 7 Norte 18 Norte 0 -- -- 97
2020-10-10 11:00:00 13.1 8 Norte 17 Nordeste 0 -- -- 97
2020-10-10 10:00:00 13.6 9 Norte 18 Nordeste 0.2 -- -- 100
2020-10-10 09:00:00 13.8 0 Calma 2 Sudeste 0.6 -- -- 100
2020-10-10 08:00:00 13.8 0 Calma 4 Sur 0.4 -- -- 100
2020-10-10 07:00:00 13.7 0 Calma 3 Norte 0.8 -- -- 100
2020-10-10 06:00:00 13.8 0 Calma 4 Norte 0 -- -- 100
2020-10-10 05:00:00 13.8 2 Nordeste 8 Norte 0 -- -- 100
2020-10-10 04:00:00 13.8 3 Norte 6 Norte 0 -- -- 100
2020-10-10 03:00:00 13.9 0 Calma 4 Sur 0 -- -- 99
2020-10-10 02:00:00 14 0 Calma 5 Nordeste 0 -- -- 97
2020-10-10 01:00:00 14 0 Calma 5 Norte 0 -- -- 96
2020-10-10 00:00:00 14.2 3 Norte 6 Norte 0 -- -- 96
2020-10-09 23:00:00 14.7 2 Norte 5 Noroeste 0 -- -- 93
2020-10-09 22:00:00 15.4 2 Nordeste 5 Norte 0 -- -- 94
2020-10-09 21:00:00 15.8 2 Sur 8 Norte 0 -- -- 95
2020-10-09 20:00:00 16 3 Norte 10 Nordeste 0 -- -- 92
2020-10-09 19:00:00 16.4 3 Este 11 Norte 0 -- -- 91
2020-10-09 18:00:00 16.8 6 Nordeste 13 Norte 0 -- -- 89
2020-10-09 17:00:00 16.9 6 Norte 11 Nordeste 0 -- -- 91
2020-10-09 16:00:00 17.5 2 Este 5 Sudeste 0 -- -- 89
2020-10-09 15:00:00 17.3 0 Calma 5 Sudoeste 0 -- -- 90
2020-10-09 14:00:00 17.2 3 Sudeste 7 Sudeste 0 -- -- 90
2020-10-09 13:00:00 17.1 2 Sudoeste 5 Sudoeste 0 -- -- 92
2020-10-09 12:00:00 16.2 0 Calma 4 Sudoeste 0 -- -- 100
2020-10-09 11:00:00 15.6 0 Calma 5 Sur 0 -- -- 100
2020-10-09 10:00:00 15 3 Sur 5 Sudoeste 0 -- -- 100
2020-10-09 09:00:00 14.7 0 Calma 4 Sur 0.2 -- -- 100
2020-10-09 08:00:00 14.5 0 Calma 4 Sudeste 0 -- -- 100
2020-10-09 07:00:00 14.5 0 Calma 2 Sudoeste 0 -- -- 100
2020-10-09 06:00:00 14.4 0 Calma 6 Sudeste 0 -- -- 100
2020-10-09 05:00:00 14.4 2 Sudeste 6 Sudeste 0 -- -- 100
2020-10-09 04:00:00 14.5 4 Sudeste 8 Sur 0 -- -- 100
2020-10-09 03:00:00 14.5 3 Sudeste 8 Sudeste 0 -- -- 100
2020-10-09 02:00:00 14.5 0 Calma 3 Sudoeste 0 -- -- 100
2020-10-09 01:00:00 14.6 0 Calma 2 Sur 0 -- -- 100
2020-10-09 00:00:00 14.6 0 Calma 4 Norte 0 -- -- 99
2020-10-08 23:00:00 15.3 0 Calma 2 Norte 0 -- -- 97
2020-10-08 22:00:00 16.2 0 Calma 5 Norte 0 -- -- 95
2020-10-08 21:00:00 17 3 Nordeste 5 Nordeste 0 -- -- 93
2020-10-08 20:00:00 18.7 0 Calma 5 Norte 0 -- -- 87
2020-10-08 19:00:00 20.7 0 Calma 6 Norte 0 -- -- 84
2020-10-08 18:00:00 21.7 4 Norte 10 Norte 0 -- -- 79
2020-10-08 17:00:00 23 2 Norte 10 Oeste 0 -- -- 76
2020-10-08 16:00:00 24.2 4 Noroeste 11 Sudoeste 0 -- -- 62
2020-10-08 15:00:00 23.7 4 Sudoeste 10 Sudoeste 0 -- -- 63
2020-10-08 14:00:00 20.8 3 Noroeste 9 Oeste 0 -- -- 71
2020-10-08 13:00:00 18.5 2 Noroeste 9 Sudoeste 0 -- -- 76
2020-10-08 12:00:00 16.6 4 Sudoeste 8 Sudoeste 0 -- -- 85
2020-10-08 11:00:00 14.5 3 Sudoeste 7 Sur 0 -- -- 94
2020-10-08 10:00:00 12.9 2 Sudeste 6 Sudeste 0 -- -- 100
2020-10-08 09:00:00 12.6 0 Calma 9 Sudeste 0 -- -- 100
2020-10-08 08:00:00 13 0 Calma 9 Sudeste 0 -- -- 100
2020-10-08 07:00:00 13.4 2 Sur 6 Sur 0 -- -- 100
2020-10-08 06:00:00 13.8 0 Calma 6 Sudoeste 0 -- -- 100
2020-10-08 05:00:00 14 0 Calma 3 Norte 0 -- -- 100
2020-10-08 04:00:00 14.4 0 Calma -- -- 0 -- -- 100
2020-10-08 03:00:00 14.6 0 Calma 0 Calma 0 -- -- 100
2020-10-08 02:00:00 14.6 0 Calma 3 Norte 0 -- -- 100
2020-10-08 01:00:00 14.6 0 Calma 5 Sudeste 0.2 -- -- 100
2020-10-08 00:00:00 14.7 0 Calma 3 Noroeste 0 -- -- 100
2020-10-07 23:00:00 14.8 0 Calma 4 Este 0 -- -- 100
2020-10-07 22:00:00 14.9 0 Calma 3 Norte 0 -- -- 100
2020-10-07 21:00:00 15.2 2 Nordeste 4 Nordeste 0.2 -- -- 100
2020-10-07 20:00:00 15.5 0 Calma 8 Sur 0.2 -- -- 98
2020-10-07 19:00:00 16 4 Sudeste 9 Sur 0 -- -- 97
2020-10-07 18:00:00 16.3 5 Sur 9 Sur 0 -- -- 98
2020-10-07 17:00:00 16.7 4 Sudeste 8 Sudeste 0.2 -- -- 95
2020-10-07 16:00:00 17.4 3 Sur 8 Sudeste 0 -- -- 93
2020-10-07 15:00:00 17 6 Sur 10 Sur 0 -- -- 95
2020-10-07 14:00:00 16.7 4 Sur 8 Sur 0 -- -- 97
2020-10-07 13:00:00 16.3 3 Sur 7 Sur 0.2 -- -- 97
2020-10-07 12:00:00 15.9 3 Sur 9 Norte 0.2 -- -- 99
2020-10-07 11:00:00 15.7 5 Norte 13 Nordeste 0.4 -- -- 100
2020-10-07 10:00:00 15.5 7 Nordeste 14 Nordeste 0 -- -- 100
2020-10-07 09:00:00 15.3 0 Calma 6 Sur 0.4 -- -- 100
2020-10-07 08:00:00 15.3 0 Calma 6 Noroeste 0.6 -- -- 100
2020-10-07 07:00:00 15.2 2 Norte 6 Noroeste 0.6 -- -- 100
2020-10-07 06:00:00 15.3 0 Calma 5 Norte 0 -- -- 100
2020-10-07 05:00:00 15.3 3 Nordeste 9 Norte 0 -- -- 100
2020-10-07 04:00:00 15 2 Norte 6 Noroeste 0.4 -- -- 100
2020-10-07 03:00:00 15 3 Sur 5 Norte 0 -- -- 100
2020-10-07 02:00:00 15 3 Nordeste 5 Nordeste 0 -- -- 100
2020-10-07 01:00:00 15.4 0 Calma 4 Norte 0 -- -- 100
2020-10-07 00:00:00 15.5 0 Calma 6 Sudeste 0 -- -- 100
2020-10-06 23:00:00 15.6 0 Calma 5 Sudeste 0 -- -- 100
2020-10-06 22:00:00 15.6 0 Calma 4 Noroeste 0 -- -- 100
2020-10-06 21:00:00 15.7 0 Calma 6 Norte 0 -- -- 100
2020-10-06 20:00:00 16 5 Nordeste 10 Nordeste 0 -- -- 99
2020-10-06 19:00:00 17.1 0 Calma 5 Noroeste 0 -- -- 96
2020-10-06 18:00:00 17.4 2 Oeste 5 Sudeste 0 -- -- 97
2020-10-06 17:00:00 16.8 0 Calma 6 Nordeste 0.4 -- -- 96
2020-10-06 16:00:00 17.2 3 Nordeste 9 Sur 0.2 -- -- 90
2020-10-06 15:00:00 17.3 6 Sur 10 Sudeste 0 -- -- 86
2020-10-06 14:00:00 17.6 0 Calma 6 Sur 0 -- -- 84
2020-10-06 13:00:00 16.6 4 Sur 8 Sur 0 -- -- 86
2020-10-06 12:00:00 15.9 3 Sudoeste 6 Sur 0 -- -- 87
2020-10-06 11:00:00 14.1 2 Sudoeste 5 Sur 0 -- -- 95
2020-10-06 10:00:00 13 0 Calma 6 Sur 0 -- -- 96
2020-10-06 09:00:00 12.3 0 Calma 6 Sur 0 -- -- 96
2020-10-06 08:00:00 12 4 Sur 7 Sur 0 -- -- 97
2020-10-06 07:00:00 11.8 0 Calma 9 Sur 0 -- -- 97
2020-10-06 06:00:00 11.4 3 Norte 6 Sur 0 -- -- 98
2020-10-06 05:00:00 11.2 4 Sur 8 Sur 0 -- -- 98
2020-10-06 04:00:00 11.1 0 Calma 6 Noroeste 0 -- -- 98
2020-10-06 03:00:00 10.9 0 Calma 5 Nordeste 0 -- -- 98
2020-10-06 02:00:00 10.5 2 Sudoeste 5 Sur 0 -- -- 99
2020-10-06 01:00:00 10.2 4 Sur 8 Sur 0 -- -- 99
2020-10-06 00:00:00 10.1 3 Norte 4 Norte 0 -- -- 98
2020-10-05 23:00:00 10.1 0 Calma 4 Norte 0 -- -- 96
2020-10-05 22:00:00 11 0 Calma 5 Nordeste 0 -- -- 94
2020-10-05 21:00:00 12.3 2 Norte 6 Nordeste 0 -- -- 89
2020-10-05 20:00:00 13.9 0 Calma 11 Norte 0 -- -- 82
2020-10-05 19:00:00 15.9 3 Nordeste 13 Noroeste 0 -- -- 73
2020-10-05 18:00:00 18.1 8 Norte 17 Norte 0 -- -- 63
2020-10-05 17:00:00 19.7 4 Oeste 14 Norte 0 -- -- 57
2020-10-05 16:00:00 18.3 6 Norte 15 Nordeste 0 -- -- 59
2020-10-05 15:00:00 18.5 5 Sudoeste 16 Noroeste 0 -- -- 59
2020-10-05 14:00:00 15.8 3 Sur 8 Noroeste 0 -- -- 69
2020-10-05 13:00:00 14.6 4 Nordeste 11 Norte 0 -- -- 75
2020-10-05 12:00:00 13.4 3 Nordeste 8 Nordeste 0 -- -- 81
2020-10-05 11:00:00 12.8 3 Sudoeste 7 Nordeste 0 -- -- 95
2020-10-05 10:00:00 10.3 3 Norte 6 Norte 0 -- -- 100
2020-10-05 09:00:00 9.4 0 Calma 9 Norte 0.4 -- -- 100
2020-10-05 08:00:00 9.2 0 Calma 4 Nordeste 0 -- -- 100
2020-10-05 07:00:00 9.2 2 Norte 6 Nordeste 0.2 -- -- 100
2020-10-05 06:00:00 9.2 3 Norte 6 Norte 0 -- -- 100
2020-10-05 05:00:00 9 3 Sur 5 Sudeste 0 -- -- 100
2020-10-05 04:00:00 9.2 2 Nordeste 5 Norte 0.2 -- -- 99
2020-10-05 03:00:00 9.3 2 Este 6 Norte 0.2 -- -- 98
2020-10-05 02:00:00 9.1 3 Sur 6 Sur 0 -- -- 96
2020-10-05 01:00:00 9.4 2 Sur 8 Sur 0 -- -- 94
2020-10-05 00:00:00 9.2 4 Nordeste 10 Noroeste 0 -- -- 94
2020-10-04 23:00:00 9.8 2 Sur 11 Norte 0 -- -- 90
2020-10-04 22:00:00 10 5 Norte 17 Norte 0 -- -- 87
2020-10-04 21:00:00 10.7 4 Nordeste 13 Norte 0 -- -- 80
2020-10-04 20:00:00 11.9 9 Norte 19 Norte 0 -- -- 75
2020-10-04 19:00:00 12.9 10 Norte 26 Norte 0 -- -- 69
2020-10-04 18:00:00 13.4 4 Noroeste 33 Nordeste 0 -- -- 77
2020-10-04 17:00:00 14.3 13 Norte 29 Norte 0 -- -- 63
2020-10-04 16:00:00 14 12 Nordeste 27 Norte 0 -- -- 67
2020-10-04 15:00:00 14.6 8 Nordeste 24 Norte 0 -- -- 71
2020-10-04 14:00:00 13.9 10 Nordeste 25 Este 0 -- -- 72
2020-10-04 13:00:00 11.9 5 Sudeste 22 Norte 0.8 -- -- 92
2020-10-04 12:00:00 12.6 3 Norte 10 Norte 0.2 -- -- 94
2020-10-04 11:00:00 11.9 4 Sur 11 Norte 0 -- -- 100
2020-10-04 10:00:00 9.9 3 Norte 9 Sudeste 0.4 -- -- 100
2020-10-04 09:00:00 9.5 3 Norte 13 Nordeste 1 -- -- 100
2020-10-04 08:00:00 9.8 3 Este 14 Norte 1 -- -- 100
2020-10-04 07:00:00 8 4 Nordeste 9 Sudeste 0.4 -- -- 100
2020-10-04 06:00:00 7.2 3 Nordeste 9 Norte 0 -- -- 100
2020-10-04 05:00:00 6.7 3 Norte 6 Norte 0 -- -- 100
2020-10-04 04:00:00 6.7 3 Este 8 Norte 0 -- -- 100
2020-10-04 03:00:00 6.8 0 Calma 6 Norte 0 -- -- 100
2020-10-04 02:00:00 7.6 0 Calma 4 Sur 0 -- -- 99
2020-10-04 01:00:00 8.2 0 Calma 7 Norte 0 -- -- 100
2020-10-04 00:00:00 8.7 0 Calma 8 Norte 0 -- -- 99
2020-10-03 23:00:00 9.4 2 Norte 10 Norte 0 -- -- 97
2020-10-03 22:00:00 9.7 0 Calma 8 Sudeste 0 -- -- 98
2020-10-03 21:00:00 10.2 3 Este 12 Norte 0 -- -- 96
2020-10-03 20:00:00 11 3 Norte 14 Nordeste 0 -- -- 93
2020-10-03 19:00:00 11.9 7 Norte 14 Norte 0 -- -- 92
2020-10-03 18:00:00 12.7 6 Norte 10 Nordeste 0 -- -- 93
2020-10-03 17:00:00 13.2 5 Norte 22 Nordeste 0 -- -- 84
2020-10-03 16:00:00 14.2 8 Norte 18 Norte 0 -- -- 76
2020-10-03 15:00:00 11.8 2 Oeste 7 Sur 0.4 -- -- 98
2020-10-03 14:00:00 10.7 0 Calma 5 Sur 0.2 -- -- 100
2020-10-03 13:00:00 9.8 0 Calma 4 Sudeste 1 -- -- 100
2020-10-03 12:00:00 8.5 2 Noroeste 6 Norte 3.2 -- -- 100
2020-10-03 11:00:00 7.7 3 Noroeste 9 Sudeste 4.6 -- -- 99
2020-10-03 10:00:00 7.6 3 Sur 17 Sur 5.6 -- -- 95
2020-10-03 09:00:00 7.9 6 Sur 23 Oeste 4.2 -- -- 94
2020-10-03 08:00:00 8.2 5 Sudeste 18 Sudoeste 4.2 -- -- 92
2020-10-03 07:00:00 8.5 6 Sudeste 18 Oeste 2.2 -- -- 94
2020-10-03 06:00:00 8.5 6 Sur 13 Sudeste 2.8 -- -- 97
2020-10-03 05:00:00 8.4 4 Sudeste 9 Sudeste 3.2 -- -- 100
2020-10-03 04:00:00 8.3 3 Nordeste 9 Sudeste 0.2 -- -- 100
2020-10-03 03:00:00 8.4 7 Sudeste 14 Sudeste 2.4 -- -- 99
2020-10-03 02:00:00 8.5 4 Este 14 Sur 0.6 -- -- 95
2020-10-03 01:00:00 9 4 Nordeste 19 Oeste 0.4 -- -- 89
2020-10-03 00:00:00 9.3 8 Este 22 Norte 1.4 -- -- 80
2020-10-02 23:00:00 9.9 8 Noroeste 26 Noroeste 0.8 -- -- 79
2020-10-02 22:00:00 11 5 Sudeste 16 Norte 0 -- -- 69
2020-10-02 21:00:00 8.6 5 Nordeste 8 Norte 0 -- -- 90
2020-10-02 20:00:00 9.2 4 Nordeste 10 Nordeste 0 -- -- 87
2020-10-02 19:00:00 11.3 5 Norte 27 Norte 0 -- -- 68
2020-10-02 18:00:00 11.1 9 Norte 17 Norte 0 -- -- 72
2020-10-02 17:00:00 10.6 3 Norte 31 Norte 0 -- -- 74
2020-10-02 16:00:00 11.4 14 Norte 33 Norte 0 -- -- 70
2020-10-02 15:00:00 12 17 Norte 34 Norte 0 -- -- 72
2020-10-02 14:00:00 11.3 14 Norte 36 Norte 0 -- -- 76
2020-10-02 13:00:00 10.7 10 Nordeste 32 Nordeste 0.2 -- -- 82
2020-10-02 12:00:00 10.5 4 Oeste 11 Oeste 0 -- -- 90
2020-10-02 11:00:00 9.5 2 Norte 17 Noroeste 2.2 -- -- 97
2020-10-02 10:00:00 9.7 4 Norte 13 Nordeste 3.6 -- -- 95
2020-10-02 09:00:00 10.7 4 Nordeste 31 Nordeste 2.4 -- -- 90
2020-10-02 08:00:00 12.1 2 Noroeste 23 Norte 1.8 -- -- 95
2020-10-02 07:00:00 12.7 4 Nordeste 22 Noroeste 3.2 -- -- 94
2020-10-02 06:00:00 13.6 12 Norte 27 Norte 4.2 -- -- 92
2020-10-02 05:00:00 15.8 11 Norte 44 Noroeste 0.4 -- -- 78
2020-10-02 04:00:00 18 16 Sur 51 Sur 0 -- -- 59
2020-10-02 03:00:00 18.3 12 Sur 46 Sur 0.2 -- -- 59
2020-10-02 02:00:00 16.7 7 Sudoeste 36 Noroeste 0.2 -- -- 65
2020-10-02 01:00:00 17.8 8 Norte 35 Sudoeste 0.2 -- -- 62
2020-10-02 00:00:00 19.5 12 Sur 35 Sudeste 0 -- -- 49
2020-10-01 23:00:00 17.9 19 Sur 59 Sur 0 -- -- 56
2020-10-01 22:00:00 12 7 Nordeste 12 Este 0 -- -- 99
2020-10-01 21:00:00 12.6 3 Norte 8 Norte 0 -- -- 96
2020-10-01 20:00:00 14.1 2 Nordeste 4 Sudeste 0 -- -- 92
2020-10-01 19:00:00 15.8 2 Sur 4 Sur 0 -- -- 83
2020-10-01 18:00:00 16.3 2 Noroeste 8 Norte 0 -- -- 83
2020-10-01 17:00:00 16.4 3 Norte 6 Norte 0 -- -- 82
2020-10-01 16:00:00 16.1 0 Calma 5 Sudoeste 0 -- -- 84
2020-10-01 15:00:00 16 3 Sudoeste 6 Sudoeste 0 -- -- 85
2020-10-01 14:00:00 15.7 3 Norte 5 Norte 0 -- -- 87
2020-10-01 13:00:00 14.5 0 Calma 4 Noroeste 0 -- -- 96
2020-10-01 12:00:00 13.9 2 Norte 6 Norte 0.8 -- -- 100
2020-10-01 11:00:00 13.4 3 Sur 6 Sudeste 0 -- -- 100
2020-10-01 10:00:00 12.6 5 Sudeste 8 Sudeste 0.2 -- -- 100
2020-10-01 09:00:00 12.1 3 Norte 8 Nordeste 0.2 -- -- 100
2020-10-01 08:00:00 11.6 2 Norte 5 Norte 0 -- -- 100
2020-10-01 07:00:00 11.5 4 Sudeste 5 Sur 0 -- -- 100
2020-10-01 06:00:00 11.3 2 Nordeste 6 Nordeste 0 -- -- 100
2020-10-01 05:00:00 11.3 0 Calma 9 Sudeste 0 -- -- 100
2020-10-01 04:00:00 11.7 3 Norte 6 Norte 0 -- -- 100
2020-10-01 03:00:00 11.5 2 Este 9 Sur 0 -- -- 100
2020-10-01 02:00:00 11.7 2 Noroeste 6 Nordeste 0 -- -- 99
2020-10-01 01:00:00 12 0 Calma 6 Noroeste 0 -- -- 97
2020-10-01 00:00:00 12.6 3 Nordeste 5 Nordeste 0 -- -- 96